sensor_id;sensor_type;location;lat;lon;timestamp;P1;durP1;ratioP1;P2;durP2;ratioP2
52858;SDS011;38721;53.098;6.596;2023-02-28T00:01:24;8.50;;;3.83;;
52858;SDS011;38721;53.098;6.596;2023-02-28T00:03:50;9.65;;;3.75;;
52858;SDS011;38721;53.098;6.596;2023-02-28T00:06:15;6.72;;;3.50;;
52858;SDS011;38721;53.098;6.596;2023-02-28T00:08:41;8.98;;;3.72;;
52858;SDS011;38721;53.098;6.596;2023-02-28T00:11:08;9.23;;;4.18;;
52858;SDS011;38721;53.098;6.596;2023-02-28T00:13:37;8.88;;;3.85;;
52858;SDS011;38721;53.098;6.596;2023-02-28T00:16:09;11.23;;;3.72;;
52858;SDS011;38721;53.098;6.596;2023-02-28T00:18:36;9.25;;;4.32;;
52858;SDS011;38721;53.098;6.596;2023-02-28T00:21:02;13.15;;;4.40;;
52858;SDS011;38721;53.098;6.596;2023-02-28T00:23:28;8.25;;;4.05;;
52858;SDS011;38721;53.098;6.596;2023-02-28T00:25:54;7.90;;;3.85;;
52858;SDS011;38721;53.098;6.596;2023-02-28T00:28:23;9.43;;;4.50;;
52858;SDS011;38721;53.098;6.596;2023-02-28T00:30:49;9.30;;;4.20;;
52858;SDS011;38721;53.098;6.596;2023-02-28T00:33:14;11.02;;;4.30;;
52858;SDS011;38721;53.098;6.596;2023-02-28T00:35:40;9.98;;;4.40;;
52858;SDS011;38721;53.098;6.596;2023-02-28T00:38:06;8.65;;;4.50;;
52858;SDS011;38721;53.098;6.596;2023-02-28T00:40:32;11.95;;;3.90;;
52858;SDS011;38721;53.098;6.596;2023-02-28T00:42:57;10.35;;;4.55;;
52858;SDS011;38721;53.098;6.596;2023-02-28T00:45:23;10.95;;;4.57;;
52858;SDS011;38721;53.098;6.596;2023-02-28T00:47:48;7.50;;;4.00;;
52858;SDS011;38721;53.098;6.596;2023-02-28T00:50:18;11.90;;;4.97;;
52858;SDS011;38721;53.098;6.596;2023-02-28T00:52:45;11.05;;;4.15;;
52858;SDS011;38721;53.098;6.596;2023-02-28T00:55:11;9.75;;;4.47;;
52858;SDS011;38721;53.098;6.596;2023-02-28T00:57:37;12.10;;;4.70;;
52858;SDS011;38721;53.098;6.596;2023-02-28T01:00:03;9.85;;;4.32;;
52858;SDS011;38721;53.098;6.596;2023-02-28T01:02:30;10.13;;;4.55;;
52858;SDS011;38721;53.098;6.596;2023-02-28T01:04:55;9.70;;;4.10;;
52858;SDS011;38721;53.098;6.596;2023-02-28T01:07:22;8.60;;;4.78;;
52858;SDS011;38721;53.098;6.596;2023-02-28T01:09:48;12.43;;;5.10;;
52858;SDS011;38721;53.098;6.596;2023-02-28T01:12:13;14.90;;;4.97;;
52858;SDS011;38721;53.098;6.596;2023-02-28T01:14:39;12.35;;;5.50;;
52858;SDS011;38721;53.098;6.596;2023-02-28T01:17:05;13.40;;;6.45;;
52858;SDS011;38721;53.098;6.596;2023-02-28T01:19:31;10.73;;;6.13;;
52858;SDS011;38721;53.098;6.596;2023-02-28T01:22:00;17.58;;;7.25;;
52858;SDS011;38721;53.098;6.596;2023-02-28T01:24:26;11.15;;;5.53;;
52858;SDS011;38721;53.098;6.596;2023-02-28T01:26:52;11.20;;;5.80;;
52858;SDS011;38721;53.098;6.596;2023-02-28T01:29:18;15.00;;;6.68;;
52858;SDS011;38721;53.098;6.596;2023-02-28T01:31:43;14.35;;;5.72;;
52858;SDS011;38721;53.098;6.596;2023-02-28T01:34:09;11.55;;;5.88;;
52858;SDS011;38721;53.098;6.596;2023-02-28T01:36:35;10.30;;;6.18;;
52858;SDS011;38721;53.098;6.596;2023-02-28T01:39:01;11.55;;;5.82;;
52858;SDS011;38721;53.098;6.596;2023-02-28T01:41:29;12.07;;;5.47;;
52858;SDS011;38721;53.098;6.596;2023-02-28T01:46:22;11.57;;;5.10;;
52858;SDS011;38721;53.098;6.596;2023-02-28T01:48:50;15.27;;;5.30;;
52858;SDS011;38721;53.098;6.596;2023-02-28T01:51:26;9.25;;;4.80;;
52858;SDS011;38721;53.098;6.596;2023-02-28T01:53:55;12.00;;;5.72;;
52858;SDS011;38721;53.098;6.596;2023-02-28T01:56:27;12.13;;;5.70;;
52858;SDS011;38721;53.098;6.596;2023-02-28T01:58:55;11.32;;;5.28;;
52858;SDS011;38721;53.098;6.596;2023-02-28T02:01:22;12.52;;;5.95;;
52858;SDS011;38721;53.098;6.596;2023-02-28T02:03:56;10.70;;;5.40;;
52858;SDS011;38721;53.098;6.596;2023-02-28T02:06:29;13.23;;;5.55;;
52858;SDS011;38721;53.098;6.596;2023-02-28T02:09:00;12.45;;;6.43;;
52858;SDS011;38721;53.098;6.596;2023-02-28T02:11:26;12.07;;;5.88;;
52858;SDS011;38721;53.098;6.596;2023-02-28T02:14:01;10.63;;;6.30;;
52858;SDS011;38721;53.098;6.596;2023-02-28T02:42:55;13.13;;;6.97;;
52858;SDS011;38721;53.098;6.596;2023-02-28T02:48:15;13.65;;;7.05;;
52858;SDS011;38721;53.098;6.596;2023-02-28T02:50:55;11.20;;;6.82;;
52858;SDS011;38721;53.098;6.596;2023-02-28T02:53:25;16.25;;;7.97;;
52858;SDS011;38721;53.098;6.596;2023-02-28T02:55:55;13.85;;;7.72;;
52858;SDS011;38721;53.098;6.596;2023-02-28T02:58:26;15.27;;;8.13;;
52858;SDS011;38721;53.098;6.596;2023-02-28T03:00:58;11.23;;;7.25;;
52858;SDS011;38721;53.098;6.596;2023-02-28T03:03:26;11.75;;;7.45;;
52858;SDS011;38721;53.098;6.596;2023-02-28T03:05:55;14.32;;;7.68;;
52858;SDS011;38721;53.098;6.596;2023-02-28T03:08:27;14.05;;;8.02;;
52858;SDS011;38721;53.098;6.596;2023-02-28T03:10:58;15.15;;;7.97;;
52858;SDS011;38721;53.098;6.596;2023-02-28T03:23:58;14.23;;;8.13;;
52858;SDS011;38721;53.098;6.596;2023-02-28T03:26:45;14.55;;;8.63;;
52858;SDS011;38721;53.098;6.596;2023-02-28T03:29:27;14.55;;;8.75;;
52858;SDS011;38721;53.098;6.596;2023-02-28T03:32:45;15.07;;;8.50;;
52858;SDS011;38721;53.098;6.596;2023-02-28T03:34:59;16.95;;;9.18;;
52858;SDS011;38721;53.098;6.596;2023-02-28T03:37:31;15.10;;;9.70;;
52858;SDS011;38721;53.098;6.596;2023-02-28T03:40:08;16.10;;;9.38;;
52858;SDS011;38721;53.098;6.596;2023-02-28T03:42:38;15.82;;;9.73;;
52858;SDS011;38721;53.098;6.596;2023-02-28T03:45:11;15.13;;;9.07;;
52858;SDS011;38721;53.098;6.596;2023-02-28T03:50:27;16.38;;;8.43;;
52858;SDS011;38721;53.098;6.596;2023-02-28T03:56:01;11.95;;;7.47;;
52858;SDS011;38721;53.098;6.596;2023-02-28T03:58:31;11.27;;;7.80;;
52858;SDS011;38721;53.098;6.596;2023-02-28T04:01:18;10.98;;;7.18;;
52858;SDS011;38721;53.098;6.596;2023-02-28T04:04:02;10.73;;;7.15;;
52858;SDS011;38721;53.098;6.596;2023-02-28T04:06:29;10.48;;;7.65;;
52858;SDS011;38721;53.098;6.596;2023-02-28T04:08:56;10.93;;;6.72;;
52858;SDS011;38721;53.098;6.596;2023-02-28T04:14:08;12.13;;;7.50;;
52858;SDS011;38721;53.098;6.596;2023-02-28T04:16:35;13.38;;;8.10;;
52858;SDS011;38721;53.098;6.596;2023-02-28T04:19:04;12.35;;;8.00;;
52858;SDS011;38721;53.098;6.596;2023-02-28T04:21:35;17.40;;;8.43;;
52858;SDS011;38721;53.098;6.596;2023-02-28T04:24:04;10.63;;;7.65;;
52858;SDS011;38721;53.098;6.596;2023-02-28T04:26:31;15.77;;;7.80;;
52858;SDS011;38721;53.098;6.596;2023-02-28T04:28:58;15.43;;;7.43;;
52858;SDS011;38721;53.098;6.596;2023-02-28T04:31:24;14.50;;;8.55;;
52858;SDS011;38721;53.098;6.596;2023-02-28T04:33:50;15.40;;;8.32;;
52858;SDS011;38721;53.098;6.596;2023-02-28T04:36:16;11.73;;;7.60;;
52858;SDS011;38721;53.098;6.596;2023-02-28T04:38:46;13.07;;;7.68;;
52858;SDS011;38721;53.098;6.596;2023-02-28T04:41:12;14.15;;;8.18;;
52858;SDS011;38721;53.098;6.596;2023-02-28T04:43:41;12.18;;;7.40;;
52858;SDS011;38721;53.098;6.596;2023-02-28T04:46:10;14.40;;;8.20;;
52858;SDS011;38721;53.098;6.596;2023-02-28T04:48:37;13.70;;;7.60;;
52858;SDS011;38721;53.098;6.596;2023-02-28T04:51:08;17.75;;;7.90;;
52858;SDS011;38721;53.098;6.596;2023-02-28T04:53:37;17.58;;;8.40;;
52858;SDS011;38721;53.098;6.596;2023-02-28T04:56:04;14.07;;;8.40;;
52858;SDS011;38721;53.098;6.596;2023-02-28T04:58:31;13.82;;;8.85;;
52858;SDS011;38721;53.098;6.596;2023-02-28T05:01:14;13.43;;;8.68;;
52858;SDS011;38721;53.098;6.596;2023-02-28T05:03:41;15.02;;;8.88;;
52858;SDS011;38721;53.098;6.596;2023-02-28T05:06:08;15.38;;;8.75;;
52858;SDS011;38721;53.098;6.596;2023-02-28T05:08:35;15.77;;;8.93;;
52858;SDS011;38721;53.098;6.596;2023-02-28T05:11:01;15.73;;;9.10;;
52858;SDS011;38721;53.098;6.596;2023-02-28T05:13:27;14.23;;;9.55;;
52858;SDS011;38721;53.098;6.596;2023-02-28T05:15:54;15.25;;;9.05;;
52858;SDS011;38721;53.098;6.596;2023-02-28T05:18:20;14.70;;;8.88;;
52858;SDS011;38721;53.098;6.596;2023-02-28T05:20:46;17.58;;;10.57;;
52858;SDS011;38721;53.098;6.596;2023-02-28T05:23:12;15.63;;;9.40;;
52858;SDS011;38721;53.098;6.596;2023-02-28T05:25:39;14.63;;;9.63;;
52858;SDS011;38721;53.098;6.596;2023-02-28T05:28:05;17.20;;;10.02;;
52858;SDS011;38721;53.098;6.596;2023-02-28T05:30:31;16.58;;;9.93;;
52858;SDS011;38721;53.098;6.596;2023-02-28T05:32:57;15.75;;;9.95;;
52858;SDS011;38721;53.098;6.596;2023-02-28T05:35:26;18.63;;;11.68;;
52858;SDS011;38721;53.098;6.596;2023-02-28T05:37:52;18.50;;;11.45;;
52858;SDS011;38721;53.098;6.596;2023-02-28T05:40:18;20.42;;;11.43;;
52858;SDS011;38721;53.098;6.596;2023-02-28T05:42:45;23.17;;;12.68;;
52858;SDS011;38721;53.098;6.596;2023-02-28T05:45:11;19.73;;;12.52;;
52858;SDS011;38721;53.098;6.596;2023-02-28T05:47:37;20.35;;;12.15;;
52858;SDS011;38721;53.098;6.596;2023-02-28T05:50:03;19.60;;;12.52;;
52858;SDS011;38721;53.098;6.596;2023-02-28T05:52:30;18.55;;;11.90;;
52858;SDS011;38721;53.098;6.596;2023-02-28T05:54:56;18.67;;;12.43;;
52858;SDS011;38721;53.098;6.596;2023-02-28T05:57:22;21.10;;;11.90;;
52858;SDS011;38721;53.098;6.596;2023-02-28T05:59:48;18.67;;;11.55;;
52858;SDS011;38721;53.098;6.596;2023-02-28T06:02:15;17.80;;;10.55;;
52858;SDS011;38721;53.098;6.596;2023-02-28T06:04:42;19.80;;;11.23;;
52858;SDS011;38721;53.098;6.596;2023-02-28T06:07:09;20.70;;;11.02;;
52858;SDS011;38721;53.098;6.596;2023-02-28T06:09:34;21.48;;;12.30;;
52858;SDS011;38721;53.098;6.596;2023-02-28T06:12:01;18.05;;;11.70;;
52858;SDS011;38721;53.098;6.596;2023-02-28T06:14:28;20.73;;;12.38;;
52858;SDS011;38721;53.098;6.596;2023-02-28T06:16:56;20.92;;;12.20;;
52858;SDS011;38721;53.098;6.596;2023-02-28T06:19:22;17.95;;;12.15;;
52858;SDS011;38721;53.098;6.596;2023-02-28T06:21:50;23.10;;;13.05;;
52858;SDS011;38721;53.098;6.596;2023-02-28T06:24:18;23.40;;;13.13;;
52858;SDS011;38721;53.098;6.596;2023-02-28T06:26:50;22.10;;;12.68;;
52858;SDS011;38721;53.098;6.596;2023-02-28T06:29:16;25.88;;;13.95;;
52858;SDS011;38721;53.098;6.596;2023-02-28T06:31:45;24.08;;;13.57;;
52858;SDS011;38721;53.098;6.596;2023-02-28T06:34:11;21.10;;;13.18;;
52858;SDS011;38721;53.098;6.596;2023-02-28T06:36:38;27.25;;;14.15;;
52858;SDS011;38721;53.098;6.596;2023-02-28T06:39:05;22.42;;;13.43;;
52858;SDS011;38721;53.098;6.596;2023-02-28T06:41:31;23.35;;;14.13;;
52858;SDS011;38721;53.098;6.596;2023-02-28T06:44:11;24.35;;;14.48;;
52858;SDS011;38721;53.098;6.596;2023-02-28T06:46:38;21.90;;;13.85;;
52858;SDS011;38721;53.098;6.596;2023-02-28T06:49:05;22.88;;;13.73;;
52858;SDS011;38721;53.098;6.596;2023-02-28T06:51:34;19.90;;;13.18;;
52858;SDS011;38721;53.098;6.596;2023-02-28T06:54:01;20.67;;;13.65;;
52858;SDS011;38721;53.098;6.596;2023-02-28T06:56:27;20.13;;;12.75;;
52858;SDS011;38721;53.098;6.596;2023-02-28T06:58:52;24.00;;;14.40;;
52858;SDS011;38721;53.098;6.596;2023-02-28T07:01:18;22.70;;;13.60;;
52858;SDS011;38721;53.098;6.596;2023-02-28T07:03:45;21.95;;;14.02;;
52858;SDS011;38721;53.098;6.596;2023-02-28T07:06:12;22.90;;;12.90;;
52858;SDS011;38721;53.098;6.596;2023-02-28T07:08:38;18.17;;;13.10;;
52858;SDS011;38721;53.098;6.596;2023-02-28T07:11:05;24.05;;;13.75;;
52858;SDS011;38721;53.098;6.596;2023-02-28T07:13:31;22.00;;;13.85;;
52858;SDS011;38721;53.098;6.596;2023-02-28T07:16:02;22.73;;;14.55;;
52858;SDS011;38721;53.098;6.596;2023-02-28T07:18:30;23.58;;;13.45;;
52858;SDS011;38721;53.098;6.596;2023-02-28T07:20:56;22.67;;;14.63;;
52858;SDS011;38721;53.098;6.596;2023-02-28T07:23:23;20.40;;;13.18;;
52858;SDS011;38721;53.098;6.596;2023-02-28T07:25:51;21.17;;;13.00;;
52858;SDS011;38721;53.098;6.596;2023-02-28T07:28:17;22.95;;;13.95;;
52858;SDS011;38721;53.098;6.596;2023-02-28T07:30:42;21.23;;;14.52;;
52858;SDS011;38721;53.098;6.596;2023-02-28T07:33:11;20.48;;;13.43;;
52858;SDS011;38721;53.098;6.596;2023-02-28T07:35:37;21.90;;;13.80;;
52858;SDS011;38721;53.098;6.596;2023-02-28T07:38:02;24.58;;;14.10;;
52858;SDS011;38721;53.098;6.596;2023-02-28T07:40:31;20.15;;;13.55;;
52858;SDS011;38721;53.098;6.596;2023-02-28T07:42:58;21.33;;;14.23;;
52858;SDS011;38721;53.098;6.596;2023-02-28T07:45:25;23.92;;;14.15;;
52858;SDS011;38721;53.098;6.596;2023-02-28T07:47:51;21.63;;;14.05;;
52858;SDS011;38721;53.098;6.596;2023-02-28T07:50:17;20.85;;;12.85;;
52858;SDS011;38721;53.098;6.596;2023-02-28T07:52:42;22.58;;;14.93;;
52858;SDS011;38721;53.098;6.596;2023-02-28T07:55:14;24.58;;;15.15;;
52858;SDS011;38721;53.098;6.596;2023-02-28T07:57:41;20.55;;;13.43;;
52858;SDS011;38721;53.098;6.596;2023-02-28T08:00:08;23.17;;;13.35;;
52858;SDS011;38721;53.098;6.596;2023-02-28T08:02:36;24.23;;;13.85;;
52858;SDS011;38721;53.098;6.596;2023-02-28T08:05:01;20.13;;;13.30;;
52858;SDS011;38721;53.098;6.596;2023-02-28T08:07:27;20.00;;;13.02;;
52858;SDS011;38721;53.098;6.596;2023-02-28T08:09:53;21.75;;;13.20;;
52858;SDS011;38721;53.098;6.596;2023-02-28T08:12:19;20.42;;;13.15;;
52858;SDS011;38721;53.098;6.596;2023-02-28T08:14:45;21.70;;;14.57;;
52858;SDS011;38721;53.098;6.596;2023-02-28T08:17:11;21.08;;;12.88;;
52858;SDS011;38721;53.098;6.596;2023-02-28T08:19:37;17.85;;;13.02;;
52858;SDS011;38721;53.098;6.596;2023-02-28T08:22:06;20.38;;;12.50;;
52858;SDS011;38721;53.098;6.596;2023-02-28T08:24:32;18.50;;;13.38;;
52858;SDS011;38721;53.098;6.596;2023-02-28T08:26:58;21.15;;;13.02;;
52858;SDS011;38721;53.098;6.596;2023-02-28T08:29:24;21.50;;;14.20;;
52858;SDS011;38721;53.098;6.596;2023-02-28T08:31:50;20.40;;;13.23;;
52858;SDS011;38721;53.098;6.596;2023-02-28T08:34:16;20.00;;;12.88;;
52858;SDS011;38721;53.098;6.596;2023-02-28T08:36:45;19.23;;;13.15;;
52858;SDS011;38721;53.098;6.596;2023-02-28T08:39:11;18.08;;;12.48;;
52858;SDS011;38721;53.098;6.596;2023-02-28T08:41:37;21.35;;;13.18;;
52858;SDS011;38721;53.098;6.596;2023-02-28T08:44:03;17.30;;;11.98;;
52858;SDS011;38721;53.098;6.596;2023-02-28T08:46:29;18.77;;;11.50;;
52858;SDS011;38721;53.098;6.596;2023-02-28T08:48:55;17.45;;;11.95;;
52858;SDS011;38721;53.098;6.596;2023-02-28T08:51:25;18.63;;;12.57;;
52858;SDS011;38721;53.098;6.596;2023-02-28T08:53:52;18.73;;;12.23;;
52858;SDS011;38721;53.098;6.596;2023-02-28T08:56:18;17.60;;;12.23;;
52858;SDS011;38721;53.098;6.596;2023-02-28T08:58:47;19.75;;;12.77;;
52858;SDS011;38721;53.098;6.596;2023-02-28T09:01:17;20.27;;;14.50;;
52858;SDS011;38721;53.098;6.596;2023-02-28T09:03:44;19.33;;;13.30;;
52858;SDS011;38721;53.098;6.596;2023-02-28T09:06:12;18.02;;;12.48;;
52858;SDS011;38721;53.098;6.596;2023-02-28T09:08:38;17.60;;;12.57;;
52858;SDS011;38721;53.098;6.596;2023-02-28T09:11:08;17.35;;;11.80;;
52858;SDS011;38721;53.098;6.596;2023-02-28T09:13:34;15.13;;;11.20;;
52858;SDS011;38721;53.098;6.596;2023-02-28T09:16:01;18.20;;;12.32;;
52858;SDS011;38721;53.098;6.596;2023-02-28T09:18:33;17.52;;;12.25;;
52858;SDS011;38721;53.098;6.596;2023-02-28T09:21:06;16.75;;;11.75;;
52858;SDS011;38721;53.098;6.596;2023-02-28T09:23:34;17.38;;;11.82;;
52858;SDS011;38721;53.098;6.596;2023-02-28T09:26:25;16.17;;;11.40;;
52858;SDS011;38721;53.098;6.596;2023-02-28T09:28:52;16.60;;;11.75;;
52858;SDS011;38721;53.098;6.596;2023-02-28T09:31:27;18.70;;;11.65;;
52858;SDS011;38721;53.098;6.596;2023-02-28T09:33:54;18.23;;;11.88;;
52858;SDS011;38721;53.098;6.596;2023-02-28T09:36:27;17.15;;;12.07;;
52858;SDS011;38721;53.098;6.596;2023-02-28T09:38:55;18.08;;;11.25;;
52858;SDS011;38721;53.098;6.596;2023-02-28T09:41:32;16.02;;;11.90;;
52858;SDS011;38721;53.098;6.596;2023-02-28T09:47:10;15.57;;;11.25;;
52858;SDS011;38721;53.098;6.596;2023-02-28T09:49:47;14.48;;;10.00;;
52858;SDS011;38721;53.098;6.596;2023-02-28T09:52:15;12.80;;;9.60;;
52858;SDS011;38721;53.098;6.596;2023-02-28T09:54:50;14.90;;;10.43;;
52858;SDS011;38721;53.098;6.596;2023-02-28T10:05:20;12.17;;;8.97;;
52858;SDS011;38721;53.098;6.596;2023-02-28T10:11:03;16.55;;;9.10;;
52858;SDS011;38721;53.098;6.596;2023-02-28T10:13:34;13.52;;;9.23;;
52858;SDS011;38721;53.098;6.596;2023-02-28T10:16:26;10.85;;;8.38;;
52858;SDS011;38721;53.098;6.596;2023-02-28T10:21:31;6.78;;;5.65;;
52858;SDS011;38721;53.098;6.596;2023-02-28T10:24:11;6.80;;;3.58;;
52858;SDS011;38721;53.098;6.596;2023-02-28T10:27:06;6.00;;;4.18;;
52858;SDS011;38721;53.098;6.596;2023-02-28T10:29:39;9.20;;;5.55;;
52858;SDS011;38721;53.098;6.596;2023-02-28T10:32:08;7.10;;;4.10;;
52858;SDS011;38721;53.098;6.596;2023-02-28T10:34:39;7.80;;;4.70;;
52858;SDS011;38721;53.098;6.596;2023-02-28T10:37:05;6.35;;;4.40;;
52858;SDS011;38721;53.098;6.596;2023-02-28T10:39:42;6.57;;;4.90;;
52858;SDS011;38721;53.098;6.596;2023-02-28T10:42:19;7.03;;;4.13;;
52858;SDS011;38721;53.098;6.596;2023-02-28T10:45:03;6.57;;;4.28;;
52858;SDS011;38721;53.098;6.596;2023-02-28T10:52:52;6.78;;;4.70;;
52858;SDS011;38721;53.098;6.596;2023-02-28T10:55:23;7.47;;;4.18;;
52858;SDS011;38721;53.098;6.596;2023-02-28T10:57:50;6.43;;;4.10;;
52858;SDS011;38721;53.098;6.596;2023-02-28T11:02:44;7.75;;;6.00;;
52858;SDS011;38721;53.098;6.596;2023-02-28T11:05:31;7.82;;;5.07;;
52858;SDS011;38721;53.098;6.596;2023-02-28T11:08:12;9.00;;;5.65;;
52858;SDS011;38721;53.098;6.596;2023-02-28T11:10:43;7.20;;;5.13;;
52858;SDS011;38721;53.098;6.596;2023-02-28T11:13:20;5.88;;;4.90;;
52858;SDS011;38721;53.098;6.596;2023-02-28T11:15:59;16.17;;;4.80;;
52858;SDS011;38721;53.098;6.596;2023-02-28T11:19:14;6.65;;;4.72;;
52858;SDS011;38721;53.098;6.596;2023-02-28T11:22:20;7.50;;;4.60;;
52858;SDS011;38721;53.098;6.596;2023-02-28T11:24:23;6.05;;;4.80;;
52858;SDS011;38721;53.098;6.596;2023-02-28T11:26:53;8.40;;;5.50;;
52858;SDS011;38721;53.098;6.596;2023-02-28T11:29:21;8.45;;;5.30;;
52858;SDS011;38721;53.098;6.596;2023-02-28T11:34:28;7.82;;;5.20;;
52858;SDS011;38721;53.098;6.596;2023-02-28T11:36:55;7.78;;;5.10;;
52858;SDS011;38721;53.098;6.596;2023-02-28T11:39:22;7.50;;;5.13;;
52858;SDS011;38721;53.098;6.596;2023-02-28T11:47:06;7.30;;;5.00;;
52858;SDS011;38721;53.098;6.596;2023-02-28T11:49:50;7.38;;;5.20;;
52858;SDS011;38721;53.098;6.596;2023-02-28T11:52:43;6.82;;;5.13;;
52858;SDS011;38721;53.098;6.596;2023-02-28T11:55:26;6.70;;;4.95;;
52858;SDS011;38721;53.098;6.596;2023-02-28T12:00:50;7.32;;;5.60;;
52858;SDS011;38721;53.098;6.596;2023-02-28T12:06:18;7.60;;;5.20;;
52858;SDS011;38721;53.098;6.596;2023-02-28T12:09:31;7.65;;;5.80;;
52858;SDS011;38721;53.098;6.596;2023-02-28T12:17:28;8.85;;;5.78;;
52858;SDS011;38721;53.098;6.596;2023-02-28T12:20:07;8.40;;;6.50;;
52858;SDS011;38721;53.098;6.596;2023-02-28T12:26:16;8.38;;;6.00;;
52858;SDS011;38721;53.098;6.596;2023-02-28T12:29:00;8.90;;;6.20;;
52858;SDS011;38721;53.098;6.596;2023-02-28T12:34:47;8.63;;;6.13;;
52858;SDS011;38721;53.098;6.596;2023-02-28T12:37:19;7.30;;;6.45;;
52858;SDS011;38721;53.098;6.596;2023-02-28T12:40:03;9.45;;;6.70;;
52858;SDS011;38721;53.098;6.596;2023-02-28T12:42:42;8.88;;;6.20;;
52858;SDS011;38721;53.098;6.596;2023-02-28T12:45:15;9.05;;;5.95;;
52858;SDS011;38721;53.098;6.596;2023-02-28T12:47:52;8.98;;;6.50;;
52858;SDS011;38721;53.098;6.596;2023-02-28T12:50:23;9.15;;;6.85;;
52858;SDS011;38721;53.098;6.596;2023-02-28T12:52:55;9.60;;;6.78;;
52858;SDS011;38721;53.098;6.596;2023-02-28T13:06:41;8.82;;;6.30;;
52858;SDS011;38721;53.098;6.596;2023-02-28T13:09:25;10.15;;;6.53;;
52858;SDS011;38721;53.098;6.596;2023-02-28T13:11:51;10.68;;;7.00;;
52858;SDS011;38721;53.098;6.596;2023-02-28T13:17:30;7.95;;;6.35;;
52858;SDS011;38721;53.098;6.596;2023-02-28T13:27:47;9.43;;;6.43;;
52858;SDS011;38721;53.098;6.596;2023-02-28T13:36:09;7.13;;;5.90;;
52858;SDS011;38721;53.098;6.596;2023-02-28T13:38:43;7.65;;;6.28;;
52858;SDS011;38721;53.098;6.596;2023-02-28T13:44:15;7.20;;;5.43;;
52858;SDS011;38721;53.098;6.596;2023-02-28T13:49:32;6.88;;;5.25;;
52858;SDS011;38721;53.098;6.596;2023-02-28T13:59:46;8.88;;;5.72;;
52858;SDS011;38721;53.098;6.596;2023-02-28T14:05:17;8.68;;;5.80;;
52858;SDS011;38721;53.098;6.596;2023-02-28T14:07:52;7.47;;;6.03;;
52858;SDS011;38721;53.098;6.596;2023-02-28T14:10:23;8.05;;;5.53;;
52858;SDS011;38721;53.098;6.596;2023-02-28T14:20:58;7.60;;;5.38;;
52858;SDS011;38721;53.098;6.596;2023-02-28T14:24:16;6.85;;;5.10;;
52858;SDS011;38721;53.098;6.596;2023-02-28T14:35:29;6.55;;;5.05;;
52858;SDS011;38721;53.098;6.596;2023-02-28T14:38:27;6.75;;;5.00;;
52858;SDS011;38721;53.098;6.596;2023-02-28T14:41:19;6.43;;;5.10;;
52858;SDS011;38721;53.098;6.596;2023-02-28T14:43:57;6.55;;;5.32;;
52858;SDS011;38721;53.098;6.596;2023-02-28T14:46:25;6.90;;;5.25;;
52858;SDS011;38721;53.098;6.596;2023-02-28T14:49:03;7.40;;;5.20;;
52858;SDS011;38721;53.098;6.596;2023-02-28T14:51:32;6.07;;;4.75;;
52858;SDS011;38721;53.098;6.596;2023-02-28T14:54:00;6.10;;;4.88;;
52858;SDS011;38721;53.098;6.596;2023-02-28T14:56:36;6.88;;;4.90;;
52858;SDS011;38721;53.098;6.596;2023-02-28T14:59:05;6.25;;;5.10;;
52858;SDS011;38721;53.098;6.596;2023-02-28T15:01:47;7.45;;;5.38;;
52858;SDS011;38721;53.098;6.596;2023-02-28T15:04:20;6.95;;;5.10;;
52858;SDS011;38721;53.098;6.596;2023-02-28T15:10:16;7.88;;;5.32;;
52858;SDS011;38721;53.098;6.596;2023-02-28T15:12:53;6.53;;;5.43;;
52858;SDS011;38721;53.098;6.596;2023-02-28T15:15:42;7.35;;;5.38;;
52858;SDS011;38721;53.098;6.596;2023-02-28T15:18:16;6.38;;;5.25;;
52858;SDS011;38721;53.098;6.596;2023-02-28T15:20:51;6.35;;;5.18;;
52858;SDS011;38721;53.098;6.596;2023-02-28T15:23:18;6.05;;;4.90;;
52858;SDS011;38721;53.098;6.596;2023-02-28T15:25:45;6.28;;;5.53;;
52858;SDS011;38721;53.098;6.596;2023-02-28T15:28:13;7.53;;;5.30;;
52858;SDS011;38721;53.098;6.596;2023-02-28T15:30:57;9.43;;;5.28;;
52858;SDS011;38721;53.098;6.596;2023-02-28T15:33:32;7.43;;;6.18;;
52858;SDS011;38721;53.098;6.596;2023-02-28T15:36:05;7.35;;;5.90;;
52858;SDS011;38721;53.098;6.596;2023-02-28T15:38:50;7.53;;;6.20;;
52858;SDS011;38721;53.098;6.596;2023-02-28T15:41:27;7.18;;;5.78;;
52858;SDS011;38721;53.098;6.596;2023-02-28T15:44:13;7.45;;;5.68;;
52858;SDS011;38721;53.098;6.596;2023-02-28T15:47:06;8.38;;;5.82;;
52858;SDS011;38721;53.098;6.596;2023-02-28T15:50:00;8.48;;;5.50;;
52858;SDS011;38721;53.098;6.596;2023-02-28T15:52:29;6.68;;;5.60;;
52858;SDS011;38721;53.098;6.596;2023-02-28T15:55:11;8.32;;;5.80;;
52858;SDS011;38721;53.098;6.596;2023-02-28T15:57:45;6.75;;;5.75;;
52858;SDS011;38721;53.098;6.596;2023-02-28T16:00:15;6.88;;;5.90;;
52858;SDS011;38721;53.098;6.596;2023-02-28T16:02:43;7.82;;;5.70;;
52858;SDS011;38721;53.098;6.596;2023-02-28T16:05:26;6.47;;;5.70;;
52858;SDS011;38721;53.098;6.596;2023-02-28T16:07:53;6.75;;;5.30;;
52858;SDS011;38721;53.098;6.596;2023-02-28T16:10:20;6.97;;;5.60;;
52858;SDS011;38721;53.098;6.596;2023-02-28T16:12:50;8.05;;;6.00;;
52858;SDS011;38721;53.098;6.596;2023-02-28T16:15:19;6.65;;;5.90;;
52858;SDS011;38721;53.098;6.596;2023-02-28T16:17:45;6.80;;;5.90;;
52858;SDS011;38721;53.098;6.596;2023-02-28T16:20:22;6.28;;;5.45;;
52858;SDS011;38721;53.098;6.596;2023-02-28T16:22:53;7.07;;;5.90;;
52858;SDS011;38721;53.098;6.596;2023-02-28T16:25:21;8.18;;;5.90;;
52858;SDS011;38721;53.098;6.596;2023-02-28T16:27:52;7.60;;;5.63;;
52858;SDS011;38721;53.098;6.596;2023-02-28T16:30:23;7.30;;;6.38;;
52858;SDS011;38721;53.098;6.596;2023-02-28T16:32:51;8.07;;;5.55;;
52858;SDS011;38721;53.098;6.596;2023-02-28T16:35:19;7.55;;;5.72;;
52858;SDS011;38721;53.098;6.596;2023-02-28T16:37:45;9.15;;;6.05;;
52858;SDS011;38721;53.098;6.596;2023-02-28T16:40:15;7.38;;;6.57;;
52858;SDS011;38721;53.098;6.596;2023-02-28T16:42:43;8.98;;;6.50;;
52858;SDS011;38721;53.098;6.596;2023-02-28T16:45:18;9.77;;;7.20;;
52858;SDS011;38721;53.098;6.596;2023-02-28T16:47:46;8.50;;;6.63;;
52858;SDS011;38721;53.098;6.596;2023-02-28T16:50:20;7.55;;;6.70;;
52858;SDS011;38721;53.098;6.596;2023-02-28T16:52:48;10.38;;;7.28;;
52858;SDS011;38721;53.098;6.596;2023-02-28T16:55:14;8.40;;;6.97;;
52858;SDS011;38721;53.098;6.596;2023-02-28T16:57:40;8.15;;;6.65;;
52858;SDS011;38721;53.098;6.596;2023-02-28T17:00:10;10.98;;;7.10;;
52858;SDS011;38721;53.098;6.596;2023-02-28T17:02:38;8.73;;;6.95;;
52858;SDS011;38721;53.098;6.596;2023-02-28T17:05:04;9.93;;;7.25;;
52858;SDS011;38721;53.098;6.596;2023-02-28T17:07:31;10.50;;;7.18;;
52858;SDS011;38721;53.098;6.596;2023-02-28T17:09:57;8.75;;;7.55;;
52858;SDS011;38721;53.098;6.596;2023-02-28T17:12:24;8.95;;;6.97;;
52858;SDS011;38721;53.098;6.596;2023-02-28T17:14:49;9.45;;;6.90;;
52858;SDS011;38721;53.098;6.596;2023-02-28T17:17:17;9.20;;;7.38;;
52858;SDS011;38721;53.098;6.596;2023-02-28T17:19:45;10.73;;;7.35;;
52858;SDS011;38721;53.098;6.596;2023-02-28T17:22:11;8.65;;;7.45;;
52858;SDS011;38721;53.098;6.596;2023-02-28T17:24:40;9.77;;;7.60;;
52858;SDS011;38721;53.098;6.596;2023-02-28T17:27:08;9.32;;;7.90;;
52858;SDS011;38721;53.098;6.596;2023-02-28T17:29:36;12.10;;;8.65;;
52858;SDS011;38721;53.098;6.596;2023-02-28T17:32:02;10.75;;;8.00;;
52858;SDS011;38721;53.098;6.596;2023-02-28T17:34:28;9.85;;;7.80;;
52858;SDS011;38721;53.098;6.596;2023-02-28T17:36:53;11.68;;;7.70;;
52858;SDS011;38721;53.098;6.596;2023-02-28T17:39:19;10.52;;;7.80;;
52858;SDS011;38721;53.098;6.596;2023-02-28T17:41:58;10.70;;;8.35;;